sensor_id;sensor_type;location;lat;lon;timestamp;pressure;altitude;pressure_sealevel;temperature;humidity
5595;BME280;1003;48.002;7.788;2024-02-28T00:00:25;98621.31;;;7.16;100.00
5595;BME280;1003;48.002;7.788;2024-02-28T00:02:52;98628.00;;;7.14;100.00
5595;BME280;1003;48.002;7.788;2024-02-28T00:05:19;98631.34;;;7.13;100.00
5595;BME280;1003;48.002;7.788;2024-02-28T00:07:46;98623.81;;;7.14;100.00
5595;BME280;1003;48.002;7.788;2024-02-28T00:12:48;98630.53;;;7.07;100.00
5595;BME280;1003;48.002;7.788;2024-02-28T00:15:17;98609.72;;;7.02;100.00
5595;BME280;1003;48.002;7.788;2024-02-28T00:17:44;98626.38;;;7.06;100.00
5595;BME280;1003;48.002;7.788;2024-02-28T00:20:13;98619.72;;;7.02;100.00
5595;BME280;1003;48.002;7.788;2024-02-28T00:22:40;98622.19;;;7.04;100.00
5595;BME280;1003;48.002;7.788;2024-02-28T00:25:08;98625.53;;;7.03;100.00
5595;BME280;1003;48.002;7.788;2024-02-28T00:27:37;98621.38;;;7.02;100.00
5595;BME280;1003;48.002;7.788;2024-02-28T00:30:06;98627.22;;;7.02;100.00
5595;BME280;1003;48.002;7.788;2024-02-28T00:32:34;98621.34;;;7.13;100.00
5595;BME280;1003;48.002;7.788;2024-02-28T00:35:02;98616.34;;;7.08;100.00
5595;BME280;1003;48.002;7.788;2024-02-28T00:37:32;98622.22;;;6.99;100.00
5595;BME280;1003;48.002;7.788;2024-02-28T00:39:59;98610.63;;;6.91;100.00
5595;BME280;1003;48.002;7.788;2024-02-28T00:42:26;98614.84;;;6.79;100.00
5595;BME280;1003;48.002;7.788;2024-02-28T00:44:54;98610.66;;;6.80;100.00
5595;BME280;1003;48.002;7.788;2024-02-28T00:47:21;98618.13;;;6.83;100.00
5595;BME280;1003;48.002;7.788;2024-02-28T00:49:50;98620.66;;;6.78;100.00
5595;BME280;1003;48.002;7.788;2024-02-28T00:52:20;98604.84;;;6.75;100.00
5595;BME280;1003;48.002;7.788;2024-02-28T00:54:47;98614.91;;;6.60;100.00
5595;BME280;1003;48.002;7.788;2024-02-28T00:57:14;98609.03;;;6.71;100.00
5595;BME280;1003;48.002;7.788;2024-02-28T00:59:42;98611.53;;;6.71;100.00
5595;BME280;1003;48.002;7.788;2024-02-28T01:02:10;98622.41;;;6.56;100.00
5595;BME280;1003;48.002;7.788;2024-02-28T01:04:39;98629.88;;;6.64;100.00
5595;BME280;1003;48.002;7.788;2024-02-28T01:07:08;98631.53;;;6.65;100.00
5595;BME280;1003;48.002;7.788;2024-02-28T01:09:35;98632.38;;;6.50;100.00
5595;BME280;1003;48.002;7.788;2024-02-28T01:12:02;98640.72;;;6.52;100.00
5595;BME280;1003;48.002;7.788;2024-02-28T01:14:30;98639.06;;;6.50;100.00
5595;BME280;1003;48.002;7.788;2024-02-28T01:16:57;98636.59;;;6.42;100.00
5595;BME280;1003;48.002;7.788;2024-02-28T01:19:24;98637.44;;;6.34;100.00
5595;BME280;1003;48.002;7.788;2024-02-28T01:21:52;98648.25;;;6.36;100.00
5595;BME280;1003;48.002;7.788;2024-02-28T01:24:20;98644.13;;;6.19;100.00
5595;BME280;1003;48.002;7.788;2024-02-28T01:26:48;98654.91;;;6.21;100.00
5595;BME280;1003;48.002;7.788;2024-02-28T01:29:18;98656.59;;;6.16;100.00
5595;BME280;1003;48.002;7.788;2024-02-28T01:34:13;98657.41;;;6.08;100.00
5595;BME280;1003;48.002;7.788;2024-02-28T01:36:41;98657.44;;;6.04;100.00
5595;BME280;1003;48.002;7.788;2024-02-28T01:39:08;98659.94;;;6.09;100.00
5595;BME280;1003;48.002;7.788;2024-02-28T01:41:37;98655.75;;;6.16;100.00
5595;BME280;1003;48.002;7.788;2024-02-28T01:44:04;98652.44;;;6.17;100.00
5595;BME280;1003;48.002;7.788;2024-02-28T01:46:32;98654.09;;;6.18;100.00
5595;BME280;1003;48.002;7.788;2024-02-28T01:49:00;98654.09;;;6.18;100.00
5595;BME280;1003;48.002;7.788;2024-02-28T01:51:28;98655.75;;;6.20;100.00
5595;BME280;1003;48.002;7.788;2024-02-28T01:53:56;98652.41;;;6.18;100.00
5595;BME280;1003;48.002;7.788;2024-02-28T01:56:23;98660.72;;;6.19;100.00
5595;BME280;1003;48.002;7.788;2024-02-28T01:58:54;98667.41;;;6.17;100.00
5595;BME280;1003;48.002;7.788;2024-02-28T02:01:22;98663.22;;;6.28;100.00
5595;BME280;1003;48.002;7.788;2024-02-28T02:03:49;98664.88;;;6.34;100.00
5595;BME280;1003;48.002;7.788;2024-02-28T02:06:16;98666.56;;;6.36;100.00
5595;BME280;1003;48.002;7.788;2024-02-28T02:08:43;98672.38;;;6.30;100.00
5595;BME280;1003;48.002;7.788;2024-02-28T02:11:14;98674.03;;;6.27;100.00
5595;BME280;1003;48.002;7.788;2024-02-28T02:13:49;98679.88;;;6.30;100.00
5595;BME280;1003;48.002;7.788;2024-02-28T02:16:19;98678.19;;;6.28;100.00
5595;BME280;1003;48.002;7.788;2024-02-28T02:18:48;98693.19;;;6.22;100.00
5595;BME280;1003;48.002;7.788;2024-02-28T02:21:18;98691.50;;;6.12;100.00
5595;BME280;1003;48.002;7.788;2024-02-28T02:23:47;98708.13;;;6.13;100.00
5595;BME280;1003;48.002;7.788;2024-02-28T02:26:15;98711.47;;;6.12;100.00
5595;BME280;1003;48.002;7.788;2024-02-28T02:28:42;98713.16;;;6.10;100.00
5595;BME280;1003;48.002;7.788;2024-02-28T02:31:10;98721.44;;;6.12;100.00
5595;BME280;1003;48.002;7.788;2024-02-28T02:33:37;98715.63;;;6.16;100.00
5595;BME280;1003;48.002;7.788;2024-02-28T02:36:04;98718.97;;;6.22;100.00
5595;BME280;1003;48.002;7.788;2024-02-28T02:38:31;98718.13;;;6.22;100.00
5595;BME280;1003;48.002;7.788;2024-02-28T02:40:59;98722.28;;;6.20;100.00
5595;BME280;1003;48.002;7.788;2024-02-28T02:43:26;98727.25;;;6.18;100.00
5595;BME280;1003;48.002;7.788;2024-02-28T02:45:53;98734.75;;;6.23;100.00
5595;BME280;1003;48.002;7.788;2024-02-28T02:48:20;98733.94;;;6.19;100.00
5595;BME280;1003;48.002;7.788;2024-02-28T02:50:47;98741.41;;;6.21;100.00
5595;BME280;1003;48.002;7.788;2024-02-28T02:53:14;98740.56;;;6.19;100.00
5595;BME280;1003;48.002;7.788;2024-02-28T02:55:41;98750.56;;;6.16;100.00
5595;BME280;1003;48.002;7.788;2024-02-28T02:58:09;98753.06;;;6.10;100.00
5595;BME280;1003;48.002;7.788;2024-02-28T03:00:36;98756.38;;;6.09;100.00
5595;BME280;1003;48.002;7.788;2024-02-28T03:03:04;98763.03;;;6.13;100.00
5595;BME280;1003;48.002;7.788;2024-02-28T03:05:31;98769.69;;;6.21;100.00
5595;BME280;1003;48.002;7.788;2024-02-28T03:07:58;98763.88;;;6.15;100.00
5595;BME280;1003;48.002;7.788;2024-02-28T03:10:25;98776.34;;;6.15;100.00
5595;BME280;1003;48.002;7.788;2024-02-28T03:12:52;98777.16;;;6.18;100.00
5595;BME280;1003;48.002;7.788;2024-02-28T03:15:20;98786.31;;;6.12;100.00
5595;BME280;1003;48.002;7.788;2024-02-28T03:17:47;98794.63;;;6.17;100.00
5595;BME280;1003;48.002;7.788;2024-02-28T03:20:14;98792.13;;;6.18;100.00
5595;BME280;1003;48.002;7.788;2024-02-28T03:22:41;98795.47;;;6.16;100.00
5595;BME280;1003;48.002;7.788;2024-02-28T03:25:09;98804.63;;;6.17;100.00
5595;BME280;1003;48.002;7.788;2024-02-28T03:27:36;98807.09;;;6.12;100.00
5595;BME280;1003;48.002;7.788;2024-02-28T03:30:05;98803.78;;;6.09;100.00
5595;BME280;1003;48.002;7.788;2024-02-28T03:32:33;98805.44;;;6.10;100.00
5595;BME280;1003;48.002;7.788;2024-02-28T03:35:00;98816.25;;;6.13;100.00
5595;BME280;1003;48.002;7.788;2024-02-28T03:37:27;98815.41;;;6.05;100.00
5595;BME280;1003;48.002;7.788;2024-02-28T03:39:54;98809.59;;;6.06;100.00
5595;BME280;1003;48.002;7.788;2024-02-28T03:42:21;98814.59;;;6.03;100.00
5595;BME280;1003;48.002;7.788;2024-02-28T03:44:48;98830.38;;;5.99;100.00
5595;BME280;1003;48.002;7.788;2024-02-28T03:47:15;98824.56;;;6.00;100.00
5595;BME280;1003;48.002;7.788;2024-02-28T03:49:43;98828.69;;;5.96;100.00
5595;BME280;1003;48.002;7.788;2024-02-28T03:52:10;98835.34;;;5.93;100.00
5595;BME280;1003;48.002;7.788;2024-02-28T03:54:37;98836.13;;;5.90;100.00
5595;BME280;1003;48.002;7.788;2024-02-28T03:57:04;98841.13;;;5.92;100.00
5595;BME280;1003;48.002;7.788;2024-02-28T03:59:31;98847.81;;;5.94;100.00
5595;BME280;1003;48.002;7.788;2024-02-28T04:01:58;98851.16;;;5.93;100.00
5595;BME280;1003;48.002;7.788;2024-02-28T04:04:25;98848.59;;;5.90;100.00
5595;BME280;1003;48.002;7.788;2024-02-28T04:06:53;98844.50;;;5.92;100.00
5595;BME280;1003;48.002;7.788;2024-02-28T04:09:20;98845.28;;;5.87;100.00
5595;BME280;1003;48.002;7.788;2024-02-28T04:11:47;98844.41;;;5.85;100.00
5595;BME280;1003;48.002;7.788;2024-02-28T04:14:14;98848.59;;;5.83;100.00
5595;BME280;1003;48.002;7.788;2024-02-28T04:16:42;98856.88;;;5.86;100.00
5595;BME280;1003;48.002;7.788;2024-02-28T04:19:10;98846.91;;;5.86;100.00
5595;BME280;1003;48.002;7.788;2024-02-28T04:21:37;98855.28;;;5.94;100.00
5595;BME280;1003;48.002;7.788;2024-02-28T04:24:06;98856.91;;;5.89;100.00
5595;BME280;1003;48.002;7.788;2024-02-28T04:26:33;98860.22;;;5.82;100.00
5595;BME280;1003;48.002;7.788;2024-02-28T04:29:01;98863.56;;;5.87;100.00
5595;BME280;1003;48.002;7.788;2024-02-28T04:31:30;98863.53;;;5.84;100.00
5595;BME280;1003;48.002;7.788;2024-02-28T04:34:00;98866.81;;;5.75;100.00
5595;BME280;1003;48.002;7.788;2024-02-28T04:36:27;98866.00;;;5.72;100.00
5595;BME280;1003;48.002;7.788;2024-02-28T04:38:54;98879.28;;;5.74;100.00
5595;BME280;1003;48.002;7.788;2024-02-28T04:41:22;98878.53;;;5.89;100.00
5595;BME280;1003;48.002;7.788;2024-02-28T04:43:49;98891.78;;;5.78;100.00
5595;BME280;1003;48.002;7.788;2024-02-28T04:46:16;98886.78;;;5.77;100.00
5595;BME280;1003;48.002;7.788;2024-02-28T04:48:43;98895.06;;;5.74;100.00
5595;BME280;1003;48.002;7.788;2024-02-28T04:51:10;98900.91;;;5.72;100.00
5595;BME280;1003;48.002;7.788;2024-02-28T04:53:38;98898.38;;;5.70;100.00
5595;BME280;1003;48.002;7.788;2024-02-28T04:56:06;98895.88;;;5.66;100.00
5595;BME280;1003;48.002;7.788;2024-02-28T04:58:35;98891.72;;;5.60;100.00
5595;BME280;1003;48.002;7.788;2024-02-28T05:01:02;98895.03;;;5.61;100.00
5595;BME280;1003;48.002;7.788;2024-02-28T05:03:29;98904.16;;;5.60;100.00
5595;BME280;1003;48.002;7.788;2024-02-28T05:05:56;98911.63;;;5.56;100.00
5595;BME280;1003;48.002;7.788;2024-02-28T05:08:24;98908.28;;;5.58;100.00
5595;BME280;1003;48.002;7.788;2024-02-28T05:10:54;98900.00;;;5.55;100.00
5595;BME280;1003;48.002;7.788;2024-02-28T05:13:22;98903.31;;;5.55;100.00
5595;BME280;1003;48.002;7.788;2024-02-28T05:15:51;98907.47;;;5.58;100.00
5595;BME280;1003;48.002;7.788;2024-02-28T05:18:18;98912.44;;;5.58;100.00
5595;BME280;1003;48.002;7.788;2024-02-28T05:20:45;98913.28;;;5.55;100.00
5595;BME280;1003;48.002;7.788;2024-02-28T05:23:12;98915.75;;;5.53;100.00
5595;BME280;1003;48.002;7.788;2024-02-28T05:25:40;98922.38;;;5.51;100.00
5595;BME280;1003;48.002;7.788;2024-02-28T05:28:07;98918.25;;;5.49;100.00
5595;BME280;1003;48.002;7.788;2024-02-28T05:30:34;98919.06;;;5.52;100.00
5595;BME280;1003;48.002;7.788;2024-02-28T05:33:02;98922.41;;;5.55;100.00
5595;BME280;1003;48.002;7.788;2024-02-28T05:35:30;98924.94;;;5.64;100.00
5595;BME280;1003;48.002;7.788;2024-02-28T05:37:57;98924.91;;;5.56;100.00
5595;BME280;1003;48.002;7.788;2024-02-28T05:43:00;98931.59;;;5.63;100.00
5595;BME280;1003;48.002;7.788;2024-02-28T05:45:28;98940.69;;;5.55;100.00
5595;BME280;1003;48.002;7.788;2024-02-28T05:47:55;98940.66;;;5.53;100.00
5595;BME280;1003;48.002;7.788;2024-02-28T05:50:23;98936.50;;;5.51;100.00
5595;BME280;1003;48.002;7.788;2024-02-28T05:52:51;98950.63;;;5.53;100.00
5595;BME280;1003;48.002;7.788;2024-02-28T05:55:18;98956.41;;;5.48;100.00
5595;BME280;1003;48.002;7.788;2024-02-28T05:57:47;98962.19;;;5.39;100.00
5595;BME280;1003;48.002;7.788;2024-02-28T06:00:14;98966.34;;;5.39;100.00
5595;BME280;1003;48.002;7.788;2024-02-28T06:02:42;98962.16;;;5.36;100.00
5595;BME280;1003;48.002;7.788;2024-02-28T06:05:09;98965.44;;;5.32;100.00
5595;BME280;1003;48.002;7.788;2024-02-28T06:07:37;98963.72;;;5.22;100.00
5595;BME280;1003;48.002;7.788;2024-02-28T06:10:05;98963.56;;;5.05;100.00
5595;BME280;1003;48.002;7.788;2024-02-28T06:12:32;98970.94;;;4.91;100.00
5595;BME280;1003;48.002;7.788;2024-02-28T06:14:59;98981.72;;;4.90;100.00
5595;BME280;1003;48.002;7.788;2024-02-28T06:17:26;98981.63;;;4.84;100.00
5595;BME280;1003;48.002;7.788;2024-02-28T06:19:53;98993.13;;;4.70;100.00
5595;BME280;1003;48.002;7.788;2024-02-28T06:22:20;98988.09;;;4.64;100.00
5595;BME280;1003;48.002;7.788;2024-02-28T06:24:48;98993.09;;;4.67;100.00
5595;BME280;1003;48.002;7.788;2024-02-28T06:27:15;99003.91;;;4.69;100.00
5595;BME280;1003;48.002;7.788;2024-02-28T06:29:42;98994.75;;;4.66;100.00
5595;BME280;1003;48.002;7.788;2024-02-28T06:32:09;99002.97;;;4.58;100.00
5595;BME280;1003;48.002;7.788;2024-02-28T06:34:36;98997.09;;;4.53;100.00
5595;BME280;1003;48.002;7.788;2024-02-28T06:37:03;98990.34;;;4.42;100.00
5595;BME280;1003;48.002;7.788;2024-02-28T06:39:30;99000.19;;;4.35;100.00
5595;BME280;1003;48.002;7.788;2024-02-28T06:41:58;99006.00;;;4.34;100.00
5595;BME280;1003;48.002;7.788;2024-02-28T06:44:25;99012.63;;;4.32;100.00
5595;BME280;1003;48.002;7.788;2024-02-28T06:46:52;99016.78;;;4.36;100.00
5595;BME280;1003;48.002;7.788;2024-02-28T06:49:19;99014.41;;;4.42;100.00
5595;BME280;1003;48.002;7.788;2024-02-28T06:51:46;99015.13;;;4.35;100.00
5595;BME280;1003;48.002;7.788;2024-02-28T06:54:13;99017.66;;;4.36;100.00
5595;BME280;1003;48.002;7.788;2024-02-28T06:56:40;99010.09;;;4.30;100.00
5595;BME280;1003;48.002;7.788;2024-02-28T06:59:08;99012.56;;;4.29;100.00
5595;BME280;1003;48.002;7.788;2024-02-28T07:01:35;99016.50;;;4.11;100.00
5595;BME280;1003;48.002;7.788;2024-02-28T07:04:03;99017.13;;;3.97;100.00
5595;BME280;1003;48.002;7.788;2024-02-28T07:06:30;99020.38;;;3.92;100.00
5595;BME280;1003;48.002;7.788;2024-02-28T07:08:57;99025.19;;;3.80;100.00
5595;BME280;1003;48.002;7.788;2024-02-28T07:11:24;99028.63;;;3.88;100.00
5595;BME280;1003;48.002;7.788;2024-02-28T07:13:51;99022.94;;;3.97;100.00
5595;BME280;1003;48.002;7.788;2024-02-28T07:16:19;99027.22;;;4.07;100.00
5595;BME280;1003;48.002;7.788;2024-02-28T07:18:46;99022.22;;;4.06;100.00
5595;BME280;1003;48.002;7.788;2024-02-28T07:21:13;99021.41;;;4.05;100.00
5595;BME280;1003;48.002;7.788;2024-02-28T07:23:40;99021.34;;;4.02;100.00
5595;BME280;1003;48.002;7.788;2024-02-28T07:26:07;99026.31;;;4.02;100.00
5595;BME280;1003;48.002;7.788;2024-02-28T07:28:34;99029.69;;;4.04;100.00
5595;BME280;1003;48.002;7.788;2024-02-28T07:31:01;99028.09;;;4.09;100.00
5595;BME280;1003;48.002;7.788;2024-02-28T07:33:29;99018.28;;;4.20;100.00
5595;BME280;1003;48.002;7.788;2024-02-28T07:35:56;99021.75;;;4.34;100.00
5595;BME280;1003;48.002;7.788;2024-02-28T07:38:26;99018.50;;;4.40;100.00
5595;BME280;1003;48.002;7.788;2024-02-28T07:40:54;99018.56;;;4.46;100.00
5595;BME280;1003;48.002;7.788;2024-02-28T07:43:21;99022.66;;;4.39;100.00
5595;BME280;1003;48.002;7.788;2024-02-28T07:45:47;99019.41;;;4.46;100.00
5595;BME280;1003;48.002;7.788;2024-02-28T07:48:13;99020.47;;;4.64;100.00
5595;BME280;1003;48.002;7.788;2024-02-28T07:50:44;99023.03;;;4.73;100.00
5595;BME280;1003;48.002;7.788;2024-02-28T07:53:11;99026.59;;;4.96;100.00
5595;BME280;1003;48.002;7.788;2024-02-28T07:55:39;99030.97;;;5.20;100.00
5595;BME280;1003;48.002;7.788;2024-02-28T07:58:06;99035.22;;;5.29;100.00
5595;BME280;1003;48.002;7.788;2024-02-28T08:00:33;99053.47;;;5.28;100.00
5595;BME280;1003;48.002;7.788;2024-02-28T08:03:00;99049.47;;;5.48;100.00
5595;BME280;1003;48.002;7.788;2024-02-28T08:05:27;99066.09;;;5.48;100.00
5595;BME280;1003;48.002;7.788;2024-02-28T08:07:55;99070.47;;;5.75;100.00
5595;BME280;1003;48.002;7.788;2024-02-28T08:10:22;99071.25;;;5.68;100.00
5595;BME280;1003;48.002;7.788;2024-02-28T08:12:49;99074.59;;;5.71;100.00
5595;BME280;1003;48.002;7.788;2024-02-28T08:15:16;99082.78;;;5.55;100.00
5595;BME280;1003;48.002;7.788;2024-02-28T08:17:43;99078.72;;;5.68;100.00
5595;BME280;1003;48.002;7.788;2024-02-28T08:20:11;99088.56;;;5.49;100.00
5595;BME280;1003;48.002;7.788;2024-02-28T08:22:38;99086.06;;;5.49;100.00
5595;BME280;1003;48.002;7.788;2024-02-28T08:25:07;99092.81;;;5.64;100.00
5595;BME280;1003;48.002;7.788;2024-02-28T08:27:36;99095.34;;;5.70;100.00
5595;BME280;1003;48.002;7.788;2024-02-28T08:30:05;99103.00;;;5.87;100.00
5595;BME280;1003;48.002;7.788;2024-02-28T08:32:34;99112.25;;;5.97;100.00
5595;BME280;1003;48.002;7.788;2024-02-28T08:35:00;99127.91;;;5.86;100.00
5595;BME280;1003;48.002;7.788;2024-02-28T08:37:27;99132.88;;;5.83;100.00
5595;BME280;1003;48.002;7.788;2024-02-28T08:39:55;99147.84;;;5.83;100.00
5595;BME280;1003;48.002;7.788;2024-02-28T08:42:25;99150.63;;;6.15;100.00
5595;BME280;1003;48.002;7.788;2024-02-28T08:44:52;99149.13;;;6.44;100.00
5595;BME280;1003;48.002;7.788;2024-02-28T08:47:23;99167.53;;;6.58;100.00
5595;BME280;1003;48.002;7.788;2024-02-28T08:49:50;99174.25;;;6.70;100.00
5595;BME280;1003;48.002;7.788;2024-02-28T08:52:17;99189.19;;;6.58;100.00
5595;BME280;1003;48.002;7.788;2024-02-28T08:54:44;99199.84;;;6.39;100.00
5595;BME280;1003;48.002;7.788;2024-02-28T08:57:11;99207.56;;;6.68;100.00
5595;BME280;1003;48.002;7.788;2024-02-28T08:59:39;99224.34;;;6.98;100.00
5595;BME280;1003;48.002;7.788;2024-02-28T09:02:07;99241.06;;;7.09;100.00
5595;BME280;1003;48.002;7.788;2024-02-28T09:04:34;99253.53;;;7.00;100.00
5595;BME280;1003;48.002;7.788;2024-02-28T09:07:01;99255.00;;;6.72;100.00
5595;BME280;1003;48.002;7.788;2024-02-28T09:09:28;99270.19;;;7.00;100.00
5595;BME280;1003;48.002;7.788;2024-02-28T09:11:57;99286.06;;;7.09;100.00
5595;BME280;1003;48.002;7.788;2024-02-28T09:14:24;99306.25;;;7.43;100.00
5595;BME280;1003;48.002;7.788;2024-02-28T09:16:52;99320.47;;;7.64;100.00
5595;BME280;1003;48.002;7.788;2024-02-28T09:19:21;99335.56;;;7.85;100.00
5595;BME280;1003;48.002;7.788;2024-02-28T09:21:48;99350.66;;;8.11;100.00
5595;BME280;1003;48.002;7.788;2024-02-28T09:24:15;99374.06;;;8.23;100.00
5595;BME280;1003;48.002;7.788;2024-02-28T09:26:42;99396.59;;;8.26;100.00
5595;BME280;1003;48.002;7.788;2024-02-28T09:29:09;99413.31;;;8.30;100.00
5595;BME280;1003;48.002;7.788;2024-02-28T09:31:36;99433.25;;;8.05;100.00
5595;BME280;1003;48.002;7.788;2024-02-28T09:34:04;99433.28;;;8.11;100.00
5595;BME280;1003;48.002;7.788;2024-02-28T09:36:42;99428.25;;;8.05;100.00
5595;BME280;1003;48.002;7.788;2024-02-28T09:39:16;99425.59;;;7.75;100.00
5595;BME280;1003;48.002;7.788;2024-02-28T09:41:43;99427.41;;;7.99;100.00
5595;BME280;1003;48.002;7.788;2024-02-28T09:44:09;99424.78;;;7.77;100.00
5595;BME280;1003;48.002;7.788;2024-02-28T09:46:38;99426.41;;;7.68;100.00
5595;BME280;1003;48.002;7.788;2024-02-28T09:49:10;99432.91;;;7.41;100.00
5595;BME280;1003;48.002;7.788;2024-02-28T09:51:37;99427.09;;;7.44;100.00
5595;BME280;1003;48.002;7.788;2024-02-28T09:54:05;99430.47;;;7.49;100.00
5595;BME280;1003;48.002;7.788;2024-02-28T09:56:32;99433.94;;;7.71;100.00
5595;BME280;1003;48.002;7.788;2024-02-28T09:59:00;99430.63;;;7.79;100.00
5595;BME280;1003;48.002;7.788;2024-02-28T10:01:28;99426.50;;;7.86;100.00
5595;BME280;1003;48.002;7.788;2024-02-28T10:03:57;99427.41;;;8.03;100.00
5595;BME280;1003;48.002;7.788;2024-02-28T10:06:27;99427.31;;;7.82;100.00
5595;BME280;1003;48.002;7.788;2024-02-28T10:08:54;99430.75;;;8.04;100.00
5595;BME280;1003;48.002;7.788;2024-02-28T10:11:21;99434.16;;;8.27;100.00
5595;BME280;1003;48.002;7.788;2024-02-28T10:13:52;99430.84;;;8.33;100.00
5595;BME280;1003;48.002;7.788;2024-02-28T10:16:20;99437.59;;;8.43;100.00
5595;BME280;1003;48.002;7.788;2024-02-28T10:18:47;99440.81;;;8.22;100.00
5595;BME280;1003;48.002;7.788;2024-02-28T10:21:14;99450.88;;;8.31;100.00
5595;BME280;1003;48.002;7.788;2024-02-28T10:23:44;99446.63;;;8.07;100.00
5595;BME280;1003;48.002;7.788;2024-02-28T10:26:12;99450.88;;;8.33;100.00
5595;BME280;1003;48.002;7.788;2024-02-28T10:28:40;99449.25;;;8.36;100.00
5595;BME280;1003;48.002;7.788;2024-02-28T10:31:09;99444.31;;;8.68;100.00
5595;BME280;1003;48.002;7.788;2024-02-28T10:33:38;99446.03;;;8.91;100.00
5595;BME280;1003;48.002;7.788;2024-02-28T10:36:06;99454.38;;;8.87;100.00
5595;BME280;1003;48.002;7.788;2024-02-28T11:53:35;99569.72;;;10.18;100.00
5595;BME280;1003;48.002;7.788;2024-02-28T11:56:02;99558.84;;;10.35;100.00
5595;BME280;1003;48.002;7.788;2024-02-28T11:58:29;99565.53;;;10.39;100.00
5595;BME280;1003;48.002;7.788;2024-02-28T12:00:56;99571.41;;;10.22;100.00
5595;BME280;1003;48.002;7.788;2024-02-28T12:03:28;99567.19;;;10.21;100.00
5595;BME280;1003;48.002;7.788;2024-02-28T12:05:55;99567.22;;;10.26;100.00
5595;BME280;1003;48.002;7.788;2024-02-28T12:08:22;99561.31;;;10.38;100.00
5595;BME280;1003;48.002;7.788;2024-02-28T12:10:51;99568.88;;;10.44;100.00
5595;BME280;1003;48.002;7.788;2024-02-28T12:13:18;99573.88;;;10.44;100.00
5595;BME280;1003;48.002;7.788;2024-02-28T12:15:46;99570.56;;;10.36;100.00
5595;BME280;1003;48.002;7.788;2024-02-28T12:18:15;99571.38;;;10.36;100.00
5595;BME280;1003;48.002;7.788;2024-02-28T12:20:42;99566.31;;;10.48;100.00
5595;BME280;1003;48.002;7.788;2024-02-28T12:23:11;99571.31;;;10.56;100.00
5595;BME280;1003;48.002;7.788;2024-02-28T12:25:38;99568.00;;;10.48;100.00
5595;BME280;1003;48.002;7.788;2024-02-28T12:28:06;99574.66;;;10.57;100.00
5595;BME280;1003;48.002;7.788;2024-02-28T12:30:40;99578.84;;;10.61;100.00
5595;BME280;1003;48.002;7.788;2024-02-28T12:33:08;99578.88;;;10.47;100.00
5595;BME280;1003;48.002;7.788;2024-02-28T12:35:35;99573.00;;;10.48;100.00
5595;BME280;1003;48.002;7.788;2024-02-28T12:38:02;99564.63;;;10.52;100.00
5595;BME280;1003;48.002;7.788;2024-02-28T12:40:29;99568.84;;;10.47;100.00
5595;BME280;1003;48.002;7.788;2024-02-28T12:42:56;99557.09;;;10.52;100.00
5595;BME280;1003;48.002;7.788;2024-02-28T12:45:25;99570.50;;;10.51;100.00
5595;BME280;1003;48.002;7.788;2024-02-28T12:47:52;99573.81;;;10.62;100.00
5595;BME280;1003;48.002;7.788;2024-02-28T12:50:22;99570.41;;;10.72;100.00
5595;BME280;1003;48.002;7.788;2024-02-28T12:52:50;99585.50;;;10.72;100.00
5595;BME280;1003;48.002;7.788;2024-02-28T12:55:19;99573.00;;;10.56;100.00
5595;BME280;1003;48.002;7.788;2024-02-28T12:57:47;99574.69;;;10.49;100.00
5595;BME280;1003;48.002;7.788;2024-02-28T13:00:15;99570.53;;;10.49;100.00
5595;BME280;1003;48.002;7.788;2024-02-28T13:02:44;99567.16;;;10.55;100.00
5595;BME280;1003;48.002;7.788;2024-02-28T13:05:12;99572.16;;;10.55;100.00
5595;BME280;1003;48.002;7.788;2024-02-28T13:07:39;99568.75;;;10.65;100.00
5595;BME280;1003;48.002;7.788;2024-02-28T13:10:08;99561.16;;;10.82;100.00
5595;BME280;1003;48.002;7.788;2024-02-28T13:12:35;99566.91;;;11.01;100.00
5595;BME280;1003;48.002;7.788;2024-02-28T13:15:05;99571.13;;;10.96;100.00
5595;BME280;1003;48.002;7.788;2024-02-28T13:17:33;99573.69;;;10.88;100.00
5595;BME280;1003;48.002;7.788;2024-02-28T13:20:02;99572.03;;;10.89;100.00
5595;BME280;1003;48.002;7.788;2024-02-28T13:22:29;99567.84;;;10.83;100.00
5595;BME280;1003;48.002;7.788;2024-02-28T13:24:56;99578.84;;;10.62;100.00
5595;BME280;1003;48.002;7.788;2024-02-28T13:27:23;99572.91;;;10.78;100.00
5595;BME280;1003;48.002;7.788;2024-02-28T13:29:50;99582.06;;;10.89;100.00
5595;BME280;1003;48.002;7.788;2024-02-28T13:32:17;99582.09;;;10.83;100.00
5595;BME280;1003;48.002;7.788;2024-02-28T13:34:44;99570.28;;;10.98;100.00
5595;BME280;1003;48.002;7.788;2024-02-28T13:37:12;99578.59;;;11.08;100.00
5595;BME280;1003;48.002;7.788;2024-02-28T13:39:39;99585.31;;;11.09;100.00
5595;BME280;1003;48.002;7.788;2024-02-28T13:42:06;99591.25;;;10.99;100.00
5595;BME280;1003;48.002;7.788;2024-02-28T13:44:35;99577.09;;;10.78;100.00
5595;BME280;1003;48.002;7.788;2024-02-28T13:47:04;99583.88;;;10.58;100.00
5595;BME280;1003;48.002;7.788;2024-02-28T13:49:31;99574.63;;;10.72;100.00
5595;BME280;1003;48.002;7.788;2024-02-28T13:51:58;99585.47;;;10.78;100.00
5595;BME280;1003;48.002;7.788;2024-02-28T13:54:26;99574.59;;;10.73;100.00
5595;BME280;1003;48.002;7.788;2024-02-28T13:56:53;99577.91;;;10.80;100.00
5595;BME280;1003;48.002;7.788;2024-02-28T13:59:20;99575.38;;;10.85;100.00
5595;BME280;1003;48.002;7.788;2024-02-28T14:15:51;99582.97;;;10.75;100.00
5595;BME280;1003;48.002;7.788;2024-02-28T14:18:19;99582.94;;;10.80;100.00
5595;BME280;1003;48.002;7.788;2024-02-28T14:20:46;99590.50;;;10.75;100.00
5595;BME280;1003;48.002;7.788;2024-02-28T14:23:13;99590.47;;;10.80;100.00
5595;BME280;1003;48.002;7.788;2024-02-28T14:25:40;99589.63;;;10.84;100.00
5595;BME280;1003;48.002;7.788;2024-02-28T14:28:07;99595.47;;;10.91;100.00
5595;BME280;1003;48.002;7.788;2024-02-28T14:30:35;99592.94;;;10.95;100.00
5595;BME280;1003;48.002;7.788;2024-02-28T14:33:04;99598.84;;;10.88;100.00
5595;BME280;1003;48.002;7.788;2024-02-28T14:35:31;99597.09;;;11.01;100.00
5595;BME280;1003;48.002;7.788;2024-02-28T14:37:58;99601.22;;;11.13;100.00
5595;BME280;1003;48.002;7.788;2024-02-28T14:40:25;99607.13;;;11.10;100.00
5595;BME280;1003;48.002;7.788;2024-02-28T14:42:52;99602.97;;;11.04;100.00
5595;BME280;1003;48.002;7.788;2024-02-28T14:45:18;99600.41;;;11.11;100.00
5595;BME280;1003;48.002;7.788;2024-02-28T14:47:45;99599.53;;;11.16;100.00
5595;BME280;1003;48.002;7.788;2024-02-28T14:50:14;99607.19;;;10.93;100.00
5595;BME280;1003;48.002;7.788;2024-02-28T14:52:41;99601.28;;;11.00;100.00
5595;BME280;1003;48.002;7.788;2024-02-28T14:55:10;99608.81;;;11.07;100.00
5595;BME280;1003;48.002;7.788;2024-02-28T14:57:38;99598.69;;;11.17;100.00